Time;durP1;ratioP1;P1;durP2;ratioP2;P2;SDS_P1;SDS_P2;PMS_P1;PMS_P2;Temp;Humidity;BMP_temperature;BMP_pressure;BME280_temperature;BME280_humidity;BME280_pressure;Samples;Min_cycle;Max_cycle;Signal;HPM_P1;HPM_P2
2022/04/12 00:00:45;;;;;;;5.53;2.03;;;;;;;12.37;46.04;96863.34;6125087;23;20190;-78
2022/04/12 00:03:11;;;;;;;3.22;1.50;;;;;;;12.27;46.29;96858.13;6128548;23;20142;-79
2022/04/12 00:05:38;;;;;;;1.95;1.58;;;;;;;12.20;45.97;96847.19;6124907;23;20515;-78
2022/04/12 00:08:05;;;;;;;2.50;1.35;;;;;;;12.12;45.79;96851.88;6118992;23;20179;-78
2022/04/12 00:10:32;;;;;;;2.50;1.45;;;;;;;12.08;45.39;96853.47;6104080;23;20680;-78
2022/04/12 00:12:58;;;;;;;2.67;1.48;;;;;;;12.00;45.79;96856.59;6101753;23;20144;-78
2022/04/12 00:15:24;;;;;;;3.30;1.45;;;;;;;11.93;46.25;96850.84;6094097;23;20242;-78
2022/04/12 00:20:34;;;;;;;2.38;1.45;;;;;;;11.85;46.38;96835.69;6155228;23;20507;-79
2022/04/12 00:23:01;;;;;;;2.33;1.20;;;;;;;11.82;47.02;96842.19;6100307;23;20163;-78
2022/04/12 00:25:27;;;;;;;1.48;1.00;;;;;;;11.74;47.62;96842.72;6117687;23;20524;-78
2022/04/12 00:27:55;;;;;;;2.10;1.20;;;;;;;11.59;47.91;96844.25;6128545;23;20266;-78
2022/04/12 00:30:22;;;;;;;2.72;1.23;;;;;;;11.62;48.65;96833.31;6102082;23;20011;-78
2022/04/12 00:32:50;;;;;;;3.40;1.90;;;;;;;11.52;49.02;96840.34;6104795;23;20172;-78
2022/04/12 00:35:16;;;;;;;3.00;1.55;;;;;;;11.41;49.56;96837.72;6118126;23;20665;-78
2022/04/12 00:37:41;;;;;;;2.72;1.30;;;;;;;11.39;49.57;96839.78;6124289;23;20254;-78
2022/04/12 00:40:08;;;;;;;3.03;1.52;;;;;;;11.30;49.85;96840.56;6105350;23;20183;-78
2022/04/12 00:42:33;;;;;;;3.63;1.60;;;;;;;11.24;48.99;96829.31;6129449;23;20257;-78
2022/04/12 00:44:59;;;;;;;2.17;1.27;;;;;;;11.27;50.17;96836.63;6121517;23;20259;-78
2022/04/12 00:47:25;;;;;;;3.17;1.52;;;;;;;11.19;50.39;96827.50;6103624;23;20087;-77
2022/04/12 00:49:51;;;;;;;2.92;1.13;;;;;;;11.15;50.13;96825.66;6117673;23;20087;-78
2022/04/12 00:52:17;;;;;;;3.28;1.42;;;;;;;11.16;49.39;96824.63;6091743;23;20187;-78
2022/04/12 00:54:43;;;;;;;2.95;1.73;;;;;;;11.18;48.76;96825.16;6124803;23;20171;-78
2022/04/12 00:57:08;;;;;;;3.40;1.17;;;;;;;11.30;48.46;96825.69;6126876;23;20245;-77
2022/04/12 00:59:35;;;;;;;3.10;1.50;;;;;;;11.39;47.55;96823.38;6127138;23;20310;-78
2022/04/12 01:02:07;;;;;;;2.05;0.95;;;;;;;11.45;47.20;96827.56;6127045;23;20692;-77
2022/04/12 01:04:33;;;;;;;1.67;0.88;;;;;;;11.65;46.52;96821.56;6066720;23;20529;-77
2022/04/12 01:06:59;;;;;;;2.63;1.27;;;;;;;11.73;46.41;96820.28;6126625;23;20258;-79
2022/04/12 01:09:28;;;;;;;2.08;1.25;;;;;;;11.83;46.30;96822.13;6100082;23;20179;-78
2022/04/12 01:11:55;;;;;;;1.50;0.80;;;;;;;11.80;45.80;96808.53;6124844;23;20464;-78
2022/04/12 01:14:22;;;;;;;3.20;1.08;;;;;;;11.86;45.94;96811.16;6100543;23;20189;-78
2022/04/12 01:16:48;;;;;;;2.60;1.20;;;;;;;11.87;46.43;96804.91;6065794;23;20219;-77
2022/04/12 01:19:13;;;;;;;1.70;1.13;;;;;;;11.93;45.63;96811.72;6112804;23;20344;-77
2022/04/12 01:21:45;;;;;;;2.42;1.08;;;;;;;11.90;45.30;96812.22;6097757;23;20210;-78
2022/04/12 01:24:10;;;;;;;1.80;0.80;;;;;;;12.03;45.19;96805.69;6122384;23;20229;-78
2022/04/12 01:26:35;;;;;;;2.65;1.00;;;;;;;12.09;45.01;96808.03;6097712;23;20183;-78
2022/04/12 01:29:01;;;;;;;2.97;0.90;;;;;;;12.21;44.39;96807.75;6122628;23;20183;-78
2022/04/12 01:31:27;;;;;;;1.40;0.95;;;;;;;12.31;44.53;96804.38;6121770;23;20831;-78
2022/04/12 01:33:53;;;;;;;2.22;0.70;;;;;;;12.36;44.37;96799.13;6100078;23;20288;-78
2022/04/12 01:36:19;;;;;;;1.48;0.90;;;;;;;12.45;44.53;96801.97;6122195;23;20027;-78
2022/04/12 01:38:45;;;;;;;2.03;0.82;;;;;;;12.46;43.73;96793.88;6152206;23;20640;-78
2022/04/12 01:41:10;;;;;;;1.63;0.75;;;;;;;12.54;44.20;96795.97;6096890;23;20215;-78
2022/04/12 01:43:35;;;;;;;1.42;0.70;;;;;;;12.51;43.69;96791.25;6066044;23;20191;-78
2022/04/12 01:46:01;;;;;;;1.77;0.93;;;;;;;12.65;43.41;96801.94;6123500;23;20653;-78
2022/04/12 01:48:26;;;;;;;1.20;0.68;;;;;;;12.67;43.72;96793.81;6097515;23;20234;-77
2022/04/12 01:50:52;;;;;;;1.63;0.93;;;;;;;12.58;44.11;96795.41;6097387;23;20205;-78
2022/04/12 01:53:17;;;;;;;1.67;0.60;;;;;;;12.60;44.02;96803.78;6090294;23;20081;-78
2022/04/12 01:55:42;;;;;;;1.50;0.75;;;;;;;12.65;43.48;96798.53;6094089;23;20184;-78
2022/04/12 01:58:08;;;;;;;0.93;0.70;;;;;;;12.66;44.26;96802.69;6122788;23;20250;-78
2022/04/12 02:00:36;;;;;;;1.33;0.75;;;;;;;12.61;43.97;96794.88;6098485;23;20619;-78
2022/04/12 02:03:05;;;;;;;1.90;0.70;;;;;;;12.49;44.08;96795.97;6095102;23;20252;-78
2022/04/12 02:05:30;;;;;;;1.45;0.57;;;;;;;12.64;43.12;96794.34;6101665;23;20289;-78
2022/04/12 02:07:56;;;;;;;1.13;0.65;;;;;;;12.67;43.63;96797.22;6087907;23;20273;-78
2022/04/12 02:10:24;;;;;;;1.38;0.70;;;;;;;12.62;43.83;96791.22;6146834;23;20136;-78
2022/04/12 02:12:49;;;;;;;0.90;0.60;;;;;;;12.66;43.27;96793.06;6122601;23;20661;-78
2022/04/12 02:15:16;;;;;;;1.35;0.70;;;;;;;12.64;42.96;96794.34;6122115;23;20145;-78
2022/04/12 02:17:41;;;;;;;2.55;0.98;;;;;;;12.59;43.61;96781.31;6090174;23;20563;-78
2022/04/12 02:20:07;;;;;;;2.20;0.60;;;;;;;12.61;43.50;96793.06;6115463;23;20175;-78
2022/04/12 02:22:34;;;;;;;3.10;0.77;;;;;;;12.62;43.75;96793.84;6149128;23;20171;-78
2022/04/12 02:24:59;;;;;;;1.92;0.90;;;;;;;12.63;43.88;96784.94;6098241;23;20251;-78
2022/04/12 02:27:25;;;;;;;1.20;0.70;;;;;;;12.65;43.35;96791.47;6096944;23;20587;-78
2022/04/12 02:29:50;;;;;;;2.40;0.75;;;;;;;12.65;43.24;96791.47;6122025;23;20246;-78
2022/04/12 02:32:15;;;;;;;1.05;0.52;;;;;;;12.63;43.09;96782.31;6122045;23;20213;-78
2022/04/12 02:34:41;;;;;;;4.28;0.77;;;;;;;12.70;43.51;96794.06;6149003;23;20236;-78
2022/04/12 02:37:06;;;;;;;0.82;0.50;;;;;;;12.71;43.06;96782.59;6149481;23;20535;-78
2022/04/12 02:39:32;;;;;;;0.90;0.50;;;;;;;12.74;43.34;96781.25;6122467;23;20214;-78
2022/04/12 02:41:57;;;;;;;1.45;0.50;;;;;;;12.69;43.00;96787.28;6121835;23;20527;-78
2022/04/12 02:44:22;;;;;;;0.93;0.60;;;;;;;12.73;43.28;96780.47;6149049;23;20646;-78
2022/04/12 02:46:48;;;;;;;1.23;0.60;;;;;;;12.71;44.01;96779.97;6115948;23;20160;-78
2022/04/12 02:49:13;;;;;;;1.00;0.70;;;;;;;12.65;44.69;96780.25;6097034;23;20230;-78
2022/04/12 02:51:38;;;;;;;1.13;0.77;;;;;;;12.57;44.46;96778.19;6096981;23;20664;-78
2022/04/12 02:54:04;;;;;;;0.90;0.55;;;;;;;12.44;44.34;96769.06;6115486;23;20176;-78
2022/04/12 02:56:29;;;;;;;2.83;0.77;;;;;;;12.47;43.54;96776.38;6091092;23;20607;-78
2022/04/12 02:58:54;;;;;;;2.40;1.13;;;;;;;12.54;42.92;96776.88;6097198;23;20594;-78
2022/04/12 03:01:20;;;;;;;1.02;0.52;;;;;;;12.57;43.32;96780.81;6123452;23;20212;-78
2022/04/12 03:03:45;;;;;;;2.15;0.70;;;;;;;12.62;43.39;96780.78;6122387;23;20223;-78
2022/04/12 03:06:11;;;;;;;1.38;0.50;;;;;;;12.57;43.77;96778.19;6122108;23;20269;-78
2022/04/12 03:08:36;;;;;;;0.90;0.77;;;;;;;12.49;43.58;96777.69;6097339;23;20180;-78
2022/04/12 03:11:02;;;;;;;1.35;0.68;;;;;;;12.51;43.73;96775.59;6148622;23;20663;-78
2022/04/12 03:13:27;;;;;;;1.55;0.68;;;;;;;12.48;43.65;96768.28;6121811;23;20141;-78
2022/04/12 03:15:52;;;;;;;2.08;0.60;;;;;;;12.43;43.76;96772.75;6121952;23;20183;-78
2022/04/12 03:18:18;;;;;;;1.23;0.52;;;;;;;12.45;43.50;96765.44;6113929;23;20672;-77
2022/04/12 03:20:44;;;;;;;1.17;0.50;;;;;;;12.40;43.55;96760.22;6121946;23;20160;-78
2022/04/12 03:23:09;;;;;;;1.40;0.60;;;;;;;12.30;44.97;96766.25;6114288;23;20175;-78
2022/04/12 03:25:35;;;;;;;0.85;0.60;;;;;;;12.18;45.11;96763.91;6124338;23;20235;-78
2022/04/12 03:28:01;;;;;;;1.48;0.60;;;;;;;11.99;46.01;96774.13;6124299;23;20156;-78
2022/04/12 03:30:26;;;;;;;0.95;0.63;;;;;;;11.89;46.54;96776.72;6123935;23;20263;-78
2022/04/12 03:32:52;;;;;;;1.65;0.60;;;;;;;11.75;47.19;96772.03;6124164;23;20242;-78
2022/04/12 03:35:17;;;;;;;1.02;0.88;;;;;;;11.67;48.55;96780.38;6099621;23;20243;-78
2022/04/12 03:37:43;;;;;;;1.33;0.80;;;;;;;11.55;48.82;96772.00;6099801;23;20246;-78
2022/04/12 03:40:09;;;;;;;2.15;1.52;;;;;;;11.51;47.90;96776.19;6123939;23;20267;-78
2022/04/12 03:42:34;;;;;;;1.60;1.30;;;;;;;11.46;48.25;96776.97;6124300;23;20240;-78
2022/04/12 03:48:41;;;;;;;2.10;0.90;;;;;;;11.35;48.15;96770.19;6151004;23;20234;-78
2022/04/12 03:51:06;;;;;;;2.05;0.80;;;;;;;11.29;47.74;96764.16;6122214;23;20668;-78
2022/04/12 03:53:31;;;;;;;1.65;0.70;;;;;;;11.31;47.68;96772.53;6089044;23;20059;-78
2022/04/12 03:55:57;;;;;;;1.95;0.70;;;;;;;11.30;47.30;96770.97;6118004;23;20569;-78
2022/04/12 03:58:22;;;;;;;1.13;0.63;;;;;;;11.31;47.51;96775.16;6121924;23;20171;-78
2022/04/12 04:00:48;;;;;;;2.28;0.93;;;;;;;11.26;47.58;96767.31;6098713;23;20217;-78
2022/04/12 04:03:15;;;;;;;1.52;0.73;;;;;;;11.22;47.93;96771.47;6096786;23;20539;-78
2022/04/12 04:05:40;;;;;;;1.02;0.77;;;;;;;11.23;48.67;96775.66;6121858;23;20248;-78
2022/04/12 04:08:06;;;;;;;1.08;0.60;;;;;;;11.20;49.30;96768.34;6089332;23;20268;-78
2022/04/12 04:10:31;;;;;;;1.30;0.73;;;;;;;11.17;49.42;96771.44;6096802;23;20723;-78
2022/04/12 04:12:56;;;;;;;0.60;0.60;;;;;;;11.12;48.55;96771.44;6121736;23;20251;-78
2022/04/12 04:15:22;;;;;;;1.02;0.60;;;;;;;11.15;47.85;96773.53;6089144;23;20175;-78
2022/04/12 04:17:47;;;;;;;1.92;1.08;;;;;;;11.15;47.77;96778.75;6089440;23;20200;-78
2022/04/12 04:20:15;;;;;;;0.70;0.60;;;;;;;11.13;47.60;96773.78;6121707;23;20089;-78
2022/04/12 04:22:41;;;;;;;2.10;0.90;;;;;;;11.14;47.75;96780.56;6121671;23;20187;-78
2022/04/12 04:25:08;;;;;;;2.58;0.90;;;;;;;11.09;48.33;96777.16;6096731;23;20168;-78
2022/04/12 04:27:34;;;;;;;2.22;1.00;;;;;;;11.00;49.34;96769.88;6121113;23;20102;-79
2022/04/12 04:29:59;;;;;;;2.53;1.17;;;;;;;10.86;50.09;96766.97;6096999;23;20171;-78
2022/04/12 04:32:25;;;;;;;1.33;0.90;;;;;;;10.83;50.46;96764.88;6113164;23;20181;-78
2022/04/12 04:34:53;;;;;;;2.28;1.42;;;;;;;10.66;50.80;96769.50;6121601;23;20590;-78
2022/04/12 04:37:19;;;;;;;1.20;1.00;;;;;;;10.74;50.80;96771.59;6121388;23;20137;-78
2022/04/12 04:39:44;;;;;;;2.08;1.10;;;;;;;10.68;51.89;96773.41;6088990;23;20168;-78
2022/04/12 04:42:10;;;;;;;2.90;1.05;;;;;;;10.67;51.22;96764.00;6148221;23;20266;-78
2022/04/12 04:44:35;;;;;;;0.70;0.70;;;;;;;10.75;50.13;96773.16;6096956;23;20167;-78
2022/04/12 04:47:00;;;;;;;3.38;0.68;;;;;;;10.84;49.74;96770.84;6149556;23;20584;-78
2022/04/12 04:49:26;;;;;;;1.35;0.93;;;;;;;10.89;50.34;96778.69;6088676;23;20290;-78
2022/04/12 04:51:51;;;;;;;1.85;0.73;;;;;;;10.86;50.22;96776.56;6096420;23;20250;-78
2022/04/12 04:54:17;;;;;;;1.23;0.73;;;;;;;10.83;49.86;96777.06;6124066;23;20190;-78
2022/04/12 04:56:42;;;;;;;1.50;0.63;;;;;;;10.84;49.65;96779.44;6116114;23;20183;-78
2022/04/12 04:59:10;;;;;;;1.00;0.70;;;;;;;10.86;48.79;96777.38;6122790;23;20110;-78
2022/04/12 05:01:35;;;;;;;0.70;0.70;;;;;;;10.89;49.05;96783.88;6122231;23;20549;-78
2022/04/12 05:04:01;;;;;;;2.20;1.10;;;;;;;10.87;48.59;96783.38;6149588;23;20175;-78
2022/04/12 05:06:26;;;;;;;2.25;1.02;;;;;;;10.85;49.04;96778.41;6122488;23;20290;-78
2022/04/12 05:08:51;;;;;;;1.20;1.02;;;;;;;10.88;49.00;96779.69;6097698;23;20254;-78
2022/04/12 05:11:17;;;;;;;1.52;1.10;;;;;;;10.81;49.54;96781.75;6121925;23;20062;-78
2022/04/12 05:13:42;;;;;;;2.10;1.23;;;;;;;10.72;50.26;96778.88;6149456;23;20250;-78
2022/04/12 05:16:08;;;;;;;4.45;0.95;;;;;;;10.72;50.33;96783.31;6114689;23;20305;-78
2022/04/12 05:18:33;;;;;;;1.63;1.20;;;;;;;10.70;50.69;96782.78;6096880;23;20385;-78
2022/04/12 05:20:58;;;;;;;1.38;0.80;;;;;;;10.70;49.85;96786.16;6097150;23;20179;-78
2022/04/12 05:23:24;;;;;;;2.13;1.20;;;;;;;10.69;51.08;96787.19;6089637;23;20105;-78
2022/04/12 05:25:53;;;;;;;3.55;2.65;;;;;;;10.63;51.50;96790.81;6097525;23;20228;-78
2022/04/12 05:28:20;;;;;;;3.75;2.65;;;;;;;10.68;51.23;96798.66;6091385;23;20119;-78
2022/04/12 05:30:45;;;;;;;2.67;1.83;;;;;;;10.68;51.22;96799.44;6122491;23;20645;-78
2022/04/12 05:33:12;;;;;;;2.63;1.63;;;;;;;10.68;51.18;96791.63;6098376;23;20227;-78
2022/04/12 05:35:37;;;;;;;2.25;1.90;;;;;;;10.77;52.63;96785.94;6100210;23;20176;-78
2022/04/12 05:38:04;;;;;;;2.53;1.90;;;;;;;10.72;53.07;96788.50;6122928;23;20137;-78
2022/04/12 05:40:29;;;;;;;3.03;1.58;;;;;;;10.70;52.16;96793.19;6114758;23;20247;-78
2022/04/12 05:42:54;;;;;;;4.63;2.55;;;;;;;10.75;51.93;96790.63;6149668;23;20179;-78
2022/04/12 05:45:20;;;;;;;4.97;2.95;;;;;;;10.76;51.72;96794.75;6153343;23;20183;-78
2022/04/12 05:47:47;;;;;;;3.00;2.30;;;;;;;10.84;51.59;96797.66;6150492;23;20330;-78
2022/04/12 05:50:13;;;;;;;3.95;2.60;;;;;;;10.86;52.11;96794.81;6097402;23;20250;-78
2022/04/12 05:52:39;;;;;;;3.08;1.75;;;;;;;10.98;51.38;96792.75;6125159;23;20183;-78
2022/04/12 05:55:06;;;;;;;2.72;1.70;;;;;;;11.08;51.43;96802.44;6120814;23;20629;-78
2022/04/12 05:57:34;;;;;;;3.17;2.08;;;;;;;11.11;51.58;96801.16;6089137;23;20220;-78
2022/04/12 05:59:59;;;;;;;3.28;2.33;;;;;;;11.14;51.41;96792.81;6123202;23;20576;-78
2022/04/12 06:02:25;;;;;;;5.57;4.70;;;;;;;11.20;51.65;96797.00;6122301;23;20256;-78
2022/04/12 06:04:53;;;;;;;3.20;2.80;;;;;;;11.37;50.72;96800.16;6098822;23;20646;-78
2022/04/12 06:07:18;;;;;;;5.15;3.33;;;;;;;11.47;50.58;96796.00;6090148;23;20152;-78
2022/04/12 06:09:44;;;;;;;4.28;2.88;;;;;;;11.49;51.22;96801.75;6089603;23;20179;-78
2022/04/12 06:12:09;;;;;;;4.30;2.60;;;;;;;11.68;50.23;96799.41;6122793;23;20167;-78
2022/04/12 06:14:35;;;;;;;2.85;2.00;;;;;;;11.71;50.69;96798.91;6100037;23;20183;-78
2022/04/12 06:17:00;;;;;;;3.28;2.15;;;;;;;11.83;49.74;96791.59;6097513;23;20548;-78
2022/04/12 06:19:25;;;;;;;4.80;4.22;;;;;;;12.09;49.89;96799.44;6097798;23;20638;-78
2022/04/12 06:21:51;;;;;;;4.05;3.75;;;;;;;12.29;50.00;96803.84;6121578;23;20287;-78
2022/04/12 06:24:18;;;;;;;5.30;4.80;;;;;;;12.48;49.19;96814.50;6097541;23;20255;-78
2022/04/12 06:26:43;;;;;;;2.60;2.22;;;;;;;12.47;49.08;96810.31;6125143;23;20661;-78
2022/04/12 06:29:09;;;;;;;3.83;2.63;;;;;;;12.71;48.68;96815.75;6122936;23;20302;-78
2022/04/12 06:31:34;;;;;;;3.17;2.53;;;;;;;12.84;48.26;96812.56;6097505;23;20148;-78
2022/04/12 06:34:00;;;;;;;4.60;2.70;;;;;;;13.15;48.19;96820.28;6115605;23;20184;-78
2022/04/12 06:36:25;;;;;;;3.50;2.42;;;;;;;13.23;47.58;96822.31;6097814;23;20607;-78
2022/04/12 06:38:53;;;;;;;3.88;2.67;;;;;;;13.26;47.67;96819.19;6089351;23;20167;-78
2022/04/12 06:41:18;;;;;;;3.50;2.00;;;;;;;13.36;47.32;96828.03;6097091;23;20244;-78
2022/04/12 06:43:43;;;;;;;2.90;2.22;;;;;;;13.45;47.17;96829.81;6122064;23;20587;-78
2022/04/12 06:46:09;;;;;;;3.17;2.17;;;;;;;13.47;46.32;96826.94;6098858;23;20519;-78
2022/04/12 06:48:34;;;;;;;1.63;1.00;;;;;;;13.58;46.52;96836.25;6121628;23;20520;-77
2022/04/12 06:51:00;;;;;;;1.88;1.00;;;;;;;13.68;45.97;96833.56;6121294;23;20658;-77
2022/04/12 06:53:25;;;;;;;1.60;1.05;;;;;;;13.65;46.21;96830.72;6097141;23;20187;-79
2022/04/12 06:55:51;;;;;;;2.15;1.20;;;;;;;13.80;46.33;96840.31;6117231;23;20188;-79
2022/04/12 06:58:16;;;;;;;1.25;1.15;;;;;;;14.04;46.20;96830.69;6097734;23;20590;-79
2022/04/12 07:00:43;;;;;;;3.28;1.40;;;;;;;14.15;45.98;96827.97;6150959;23;20167;-79
2022/04/12 07:03:08;;;;;;;3.08;1.50;;;;;;;14.37;45.65;96827.53;6064720;23;20590;-79
2022/04/12 07:05:33;;;;;;;2.40;1.65;;;;;;;14.53;45.25;96831.56;6149313;23;20222;-79
2022/04/12 07:07:59;;;;;;;3.60;1.92;;;;;;;14.53;45.71;96826.31;6098347;23;20168;-79
2022/04/12 07:10:24;;;;;;;2.25;1.60;;;;;;;14.62;45.29;96829.13;6064002;23;20708;-79
2022/04/12 07:12:53;;;;;;;2.67;2.30;;;;;;;14.67;45.54;96830.91;6123641;23;20102;-79
2022/04/12 07:15:19;;;;;;;2.17;1.63;;;;;;;14.75;45.11;96828.47;6090168;23;20250;-79
2022/04/12 07:17:44;;;;;;;1.92;1.20;;;;;;;14.92;45.00;96829.84;6113204;23;20169;-79
2022/04/12 07:20:10;;;;;;;1.40;0.85;;;;;;;15.09;45.34;96826.75;6148012;23;20337;-77
2022/04/12 07:22:36;;;;;;;1.80;1.20;;;;;;;15.26;44.66;96819.19;6064407;23;20250;-80
2022/04/12 07:25:01;;;;;;;1.17;0.90;;;;;;;15.36;44.79;96824.28;6065583;23;20195;-78
2022/04/12 07:27:26;;;;;;;1.55;1.10;;;;;;;15.68;43.85;96827.28;6124588;23;20230;-79
2022/04/12 07:29:52;;;;;;;2.10;1.20;;;;;;;15.85;44.75;96824.13;6091236;23;20227;-80
2022/04/12 07:32:17;;;;;;;1.55;1.05;;;;;;;16.02;44.77;96813.09;6123248;23;20183;-77
2022/04/12 07:34:45;;;;;;;2.05;1.50;;;;;;;16.01;44.25;96808.94;6063488;23;20148;-77
2022/04/12 07:37:10;;;;;;;1.30;1.20;;;;;;;16.35;43.52;96813.06;6122800;23;20719;-77
2022/04/12 07:39:36;;;;;;;2.20;1.05;;;;;;;16.44;43.06;96806.84;6121630;23;20164;-77
2022/04/12 07:42:02;;;;;;;1.50;1.40;;;;;;;16.69;42.91;96817.19;6063413;23;20136;-77
2022/04/12 07:44:27;;;;;;;0.80;0.80;;;;;;;16.93;42.35;96822.25;6112828;23;20265;-77
2022/04/12 07:46:52;;;;;;;2.47;0.88;;;;;;;17.06;42.10;96818.84;6113907;23;20330;-77
2022/04/12 07:49:18;;;;;;;1.20;1.10;;;;;;;17.23;41.87;96826.13;6112329;23;20654;-77
2022/04/12 07:51:43;;;;;;;1.00;0.88;;;;;;;17.31;40.98;96817.53;6120969;23;20328;-77
2022/04/12 07:54:09;;;;;;;3.45;1.77;;;;;;;17.37;41.01;96821.59;6120225;23;20247;-77
2022/04/12 07:56:34;;;;;;;0.82;0.82;;;;;;;17.41;41.68;96812.06;6063131;23;20262;-77
2022/04/12 07:59:00;;;;;;;1.92;0.98;;;;;;;17.54;41.08;96825.47;6121166;23;20184;-77
2022/04/12 08:01:26;;;;;;;1.52;0.80;;;;;;;17.72;40.63;96819.25;6096445;23;20628;-77
2022/04/12 08:03:51;;;;;;;1.60;0.82;;;;;;;17.82;40.71;96820.88;6121258;23;20180;-77
2022/04/12 08:06:17;;;;;;;0.80;0.70;;;;;;;17.95;41.32;96820.03;6120822;23;20552;-77
2022/04/12 08:08:43;;;;;;;1.00;0.90;;;;;;;18.18;39.79;96821.88;6087205;23;20184;-77
2022/04/12 08:11:09;;;;;;;1.38;1.05;;;;;;;17.96;40.01;96821.59;6087905;23;20175;-77
2022/04/12 08:13:34;;;;;;;0.98;0.90;;;;;;;18.01;39.08;96822.56;6121477;23;20450;-77
2022/04/12 08:15:59;;;;;;;1.02;0.65;;;;;;;18.06;39.18;96819.78;6148586;23;20187;-77
2022/04/12 08:18:25;;;;;;;1.02;0.80;;;;;;;18.10;38.85;96815.50;6092843;23;20269;-77
2022/04/12 08:20:51;;;;;;;1.58;1.20;;;;;;;18.31;39.78;96823.66;6095914;23;20199;-77
2022/04/12 08:23:17;;;;;;;2.55;1.10;;;;;;;18.38;39.18;96821.34;6062387;23;20160;-77
2022/04/12 08:25:42;;;;;;;1.20;1.10;;;;;;;18.46;39.36;96828.53;6148203;23;20179;-77
2022/04/12 08:28:09;;;;;;;1.42;1.00;;;;;;;18.69;39.60;96826.59;6088061;23;20254;-77
2022/04/12 08:30:34;;;;;;;1.10;0.98;;;;;;;18.75;39.44;96819.34;6123083;23;20176;-77
2022/04/12 08:33:01;;;;;;;2.53;0.82;;;;;;;18.67;38.95;96822.72;6064754;23;20201;-77
2022/04/12 08:35:27;;;;;;;1.27;1.02;;;;;;;18.57;39.25;96823.75;6150041;23;20589;-76
2022/04/12 08:37:53;;;;;;;1.88;1.10;;;;;;;18.34;39.99;96823.81;6123013;23;20141;-77
2022/04/12 08:40:18;;;;;;;1.77;1.35;;;;;;;18.58;39.95;96825.31;6123087;23;20622;-77
2022/04/12 08:42:44;;;;;;;2.47;1.38;;;;;;;18.65;40.56;96819.63;6098980;23;20312;-77
2022/04/12 08:45:10;;;;;;;1.83;1.00;;;;;;;18.82;40.70;96817.06;6098115;23;20168;-77
2022/04/12 08:47:36;;;;;;;2.60;1.20;;;;;;;19.04;40.33;96815.41;6114800;23;20216;-77
2022/04/12 08:50:03;;;;;;;1.02;0.93;;;;;;;19.02;39.82;96813.06;6121704;23;20165;-77
2022/04/12 08:52:29;;;;;;;1.67;1.30;;;;;;;19.52;39.49;96816.34;6122367;23;20239;-77
2022/04/12 08:54:55;;;;;;;2.75;1.08;;;;;;;19.82;39.39;96806.75;6121985;23;20223;-77
2022/04/12 08:57:20;;;;;;;2.25;1.02;;;;;;;20.25;38.10;96813.03;6098124;23;20195;-77
2022/04/12 08:59:47;;;;;;;2.35;1.13;;;;;;;20.63;38.82;96813.09;6063809;23;20356;-77
2022/04/12 09:02:12;;;;;;;1.40;1.30;;;;;;;20.39;37.34;96811.75;6097573;23;20185;-77
2022/04/12 09:04:39;;;;;;;1.17;1.00;;;;;;;20.61;35.96;96809.16;6088396;23;20203;-77
2022/04/12 09:07:09;;;;;;;2.00;1.10;;;;;;;20.93;37.34;96811.19;6097524;23;20664;-77
2022/04/12 09:09:35;;;;;;;1.17;1.08;;;;;;;21.39;35.99;96816.66;6122780;23;20246;-77
2022/04/12 09:12:02;;;;;;;2.80;1.27;;;;;;;21.46;35.25;96811.63;6087912;23;20232;-77
2022/04/12 09:14:43;;;;;;;1.67;1.00;;;;;;;21.81;34.19;96805.25;6087880;23;20231;-77
2022/04/12 09:17:20;;;;;;;0.60;0.60;;;;;;;22.36;32.77;96813.91;6121818;23;20137;-77
2022/04/12 09:19:51;;;;;;;0.60;0.60;;;;;;;22.77;30.81;96812.16;6121951;23;20174;-76
2022/04/12 09:22:22;;;;;;;1.35;0.68;;;;;;;23.25;30.35;96805.28;6088283;23;20145;-77
2022/04/12 09:24:50;;;;;;;0.73;0.50;;;;;;;23.66;28.41;96799.94;6121843;23;20488;-77
2022/04/12 09:27:18;;;;;;;1.67;0.90;;;;;;;23.88;30.93;96803.97;6088153;23;20238;-77
2022/04/12 09:29:46;;;;;;;0.95;0.65;;;;;;;24.04;26.88;96794.13;6063338;23;20185;-76
2022/04/12 09:32:14;;;;;;;1.10;0.60;;;;;;;24.19;29.60;96791.81;6121278;23;20195;-77
2022/04/12 09:34:43;;;;;;;0.88;0.80;;;;;;;24.13;27.26;96791.31;6122635;23;20164;-77
2022/04/12 09:37:27;;;;;;;1.45;0.90;;;;;;;24.54;26.68;96788.47;6096490;23;20167;-77
2022/04/12 09:39:54;;;;;;;1.35;0.60;;;;;;;25.14;28.60;96790.94;6120980;23;20278;-77
2022/04/12 09:42:35;;;;;;;1.35;0.63;;;;;;;24.99;26.08;96787.22;6148670;23;20567;-77
2022/04/12 09:45:04;;;;;;;2.15;0.60;;;;;;;25.11;26.09;96781.75;6121446;23;20183;-76
2022/04/12 09:47:32;;;;;;;1.02;0.70;;;;;;;25.52;26.00;96779.56;6065055;23;20174;-77
2022/04/12 09:49:57;;;;;;;0.93;0.70;;;;;;;26.12;24.40;96767.69;6096155;23;20149;-77
2022/04/12 09:52:22;;;;;;;1.38;1.00;;;;;;;26.11;23.67;96777.59;6121597;23;20282;-77
2022/04/12 09:54:48;;;;;;;1.83;0.75;;;;;;;26.39;24.87;96775.72;6121273;23;20187;-77
2022/04/12 09:57:14;;;;;;;1.08;0.98;;;;;;;26.47;25.88;96772.81;6121207;23;20175;-76
2022/04/12 09:59:40;;;;;;;0.68;0.63;;;;;;;26.61;24.35;96771.50;6096602;23;20629;-77
2022/04/12 10:02:05;;;;;;;0.90;0.90;;;;;;;26.79;25.10;96756.53;6096160;23;20149;-77
2022/04/12 10:04:32;;;;;;;1.15;1.05;;;;;;;26.40;22.93;96762.03;6087517;23;20203;-76
2022/04/12 10:06:58;;;;;;;3.55;0.70;;;;;;;26.93;25.89;96750.59;6096825;23;20227;-77
2022/04/12 10:09:26;;;;;;;1.05;0.70;;;;;;;26.93;24.31;96747.16;6087485;23;20492;-77
2022/04/12 10:11:51;;;;;;;1.35;0.70;;;;;;;27.13;22.97;96739.75;6096648;23;20250;-77
2022/04/12 10:14:17;;;;;;;1.02;0.60;;;;;;;27.13;24.23;96742.44;6097274;23;20251;-77
2022/04/12 10:16:43;;;;;;;0.70;0.70;;;;;;;27.28;23.99;96733.47;6121449;23;20154;-77
2022/04/12 10:19:08;;;;;;;0.80;0.80;;;;;;;27.20;26.76;96731.84;6120824;23;20220;-77
2022/04/12 10:21:35;;;;;;;0.85;0.65;;;;;;;27.00;24.95;96734.66;6145003;23;20167;-77
2022/04/12 10:24:01;;;;;;;1.50;0.73;;;;;;;27.22;22.96;96725.00;6112196;23;20613;-77
2022/04/12 10:26:28;;;;;;;0.90;0.90;;;;;;;27.78;23.18;96723.31;6121196;23;20720;-77
2022/04/12 10:28:59;;;;;;;1.38;1.00;;;;;;;27.69;22.87;96722.06;6096300;23;20142;-77
2022/04/12 10:31:25;;;;;;;0.77;0.77;;;;;;;27.52;23.35;96728.75;6062789;23;20171;-76
2022/04/12 10:34:14;;;;;;;1.40;1.00;;;;;;;27.49;24.59;96732.16;6097577;23;20148;-78
2022/04/12 10:37:03;;;;;;;1.30;0.80;;;;;;;27.59;25.79;96729.63;6111900;23;20188;-78
2022/04/12 10:39:34;;;;;;;0.93;0.85;;;;;;;27.67;24.32;96721.66;6149717;23;20384;-77
2022/04/12 10:42:02;;;;;;;1.20;0.98;;;;;;;27.97;24.61;96713.56;6095093;23;20214;-77
2022/04/12 10:44:35;;;;;;;0.65;0.65;;;;;;;27.79;22.73;96714.13;6121087;23;20182;-77
2022/04/12 10:47:01;;;;;;;0.90;0.90;;;;;;;27.93;23.67;96718.88;6097849;23;20182;-78
2022/04/12 10:49:34;;;;;;;0.98;0.90;;;;;;;27.97;24.32;96710.88;6122795;23;20313;-78
2022/04/12 10:52:00;;;;;;;1.00;0.90;;;;;;;27.89;25.32;96710.00;6120414;23;20168;-78
2022/04/12 10:54:34;;;;;;;1.20;1.10;;;;;;;27.97;22.02;96698.25;6088006;23;20187;-77
2022/04/12 10:57:18;;;;;;;1.15;1.00;;;;;;;28.04;23.56;96710.94;6112261;23;20168;-78
2022/04/12 11:00:02;;;;;;;1.10;0.83;;;;;;;28.25;22.80;96710.31;6112376;23;20184;-78
2022/04/12 11:02:30;;;;;;;1.38;0.75;;;;;;;27.93;22.28;96700.16;6148417;23;20172;-78
2022/04/12 11:04:56;;;;;;;1.50;0.82;;;;;;;28.09;23.14;96707.91;6088663;23;20173;-78
2022/04/12 11:07:33;;;;;;;2.63;1.30;;;;;;;27.83;25.77;96704.25;6095846;23;20543;-78
2022/04/12 11:10:18;;;;;;;2.40;0.82;;;;;;;27.91;23.23;96704.28;6120400;23;20253;-78
2022/04/12 11:12:44;;;;;;;1.92;0.95;;;;;;;28.35;23.31;96700.84;6121298;23;20148;-78
2022/04/12 11:15:26;;;;;;;1.15;1.00;;;;;;;28.26;22.12;96703.03;6150140;23;20167;-78
2022/04/12 11:18:05;;;;;;;1.20;1.10;;;;;;;28.32;23.30;96701.56;6122249;23;20609;-78
2022/04/12 11:20:31;;;;;;;0.93;0.80;;;;;;;28.14;24.93;96694.19;6096112;23;20184;-78
2022/04/12 11:22:58;;;;;;;1.38;1.00;;;;;;;28.50;23.12;96696.34;6120508;23;20370;-78
2022/04/12 11:25:26;;;;;;;2.03;1.10;;;;;;;28.22;22.19;96689.63;6096614;23;20322;-78
2022/04/12 11:27:58;;;;;;;2.10;0.80;;;;;;;28.24;23.88;96699.97;6112297;23;20345;-79
2022/04/12 11:30:25;;;;;;;2.33;0.80;;;;;;;28.62;24.16;96693.38;6095635;23;20664;-78
2022/04/12 11:32:54;;;;;;;1.27;1.20;;;;;;;28.58;22.32;96697.91;6096466;23;20143;-79
2022/04/12 11:35:20;;;;;;;2.30;1.20;;;;;;;28.54;21.84;96695.19;6120323;23;20653;-78
2022/04/12 11:37:46;;;;;;;1.30;0.70;;;;;;;28.31;24.58;96697.34;6096520;23;20097;-78